sensor_id;sensor_type;location;lat;lon;timestamp;pressure;altitude;pressure_sealevel;temperature;humidity
71774;BME280;59607;52.130;5.430;2023-09-07T00:01:58;102064.97;;;18.68;100.00
71774;BME280;59607;52.130;5.430;2023-09-07T00:04:32;102063.88;;;18.62;100.00
71774;BME280;59607;52.130;5.430;2023-09-07T00:06:58;102056.72;;;18.63;100.00
71774;BME280;59607;52.130;5.430;2023-09-07T00:09:27;102058.28;;;18.57;100.00
71774;BME280;59607;52.130;5.430;2023-09-07T00:11:56;102054.44;;;18.60;100.00
71774;BME280;59607;52.130;5.430;2023-09-07T00:14:23;102052.44;;;18.62;100.00
71774;BME280;59607;52.130;5.430;2023-09-07T00:19:25;102058.03;;;18.52;100.00
71774;BME280;59607;52.130;5.430;2023-09-07T00:21:58;102052.91;;;18.50;100.00
71774;BME280;59607;52.130;5.430;2023-09-07T00:24:24;102043.28;;;18.49;100.00
71774;BME280;59607;52.130;5.430;2023-09-07T00:26:51;102052.44;;;18.47;100.00
71774;BME280;59607;52.130;5.430;2023-09-07T00:29:18;102043.66;;;18.46;100.00
71774;BME280;59607;52.130;5.430;2023-09-07T00:31:50;102050.63;;;18.47;100.00
71774;BME280;59607;52.130;5.430;2023-09-07T00:34:18;102048.13;;;18.46;100.00
71774;BME280;59607;52.130;5.430;2023-09-07T00:36:50;102047.31;;;18.45;100.00
71774;BME280;59607;52.130;5.430;2023-09-07T00:39:17;102049.16;;;18.45;100.00
71774;BME280;59607;52.130;5.430;2023-09-07T00:41:43;102040.47;;;18.36;100.00
71774;BME280;59607;52.130;5.430;2023-09-07T00:44:10;102037.91;;;18.28;100.00
71774;BME280;59607;52.130;5.430;2023-09-07T00:46:40;102038.00;;;18.19;100.00
71774;BME280;59607;52.130;5.430;2023-09-07T00:49:14;102036.19;;;18.20;100.00
71774;BME280;59607;52.130;5.430;2023-09-07T00:51:43;102036.19;;;18.20;100.00
71774;BME280;59607;52.130;5.430;2023-09-07T00:54:11;102035.72;;;18.16;100.00
71774;BME280;59607;52.130;5.430;2023-09-07T00:56:37;102026.63;;;18.10;100.00
71774;BME280;59607;52.130;5.430;2023-09-07T00:59:07;102034.34;;;18.05;100.00
71774;BME280;59607;52.130;5.430;2023-09-07T01:01:35;102029.03;;;18.05;100.00
71774;BME280;59607;52.130;5.430;2023-09-07T01:04:05;102032.66;;;18.04;100.00
71774;BME280;59607;52.130;5.430;2023-09-07T01:06:38;102029.28;;;17.95;100.00
71774;BME280;59607;52.130;5.430;2023-09-07T01:09:14;102029.00;;;17.90;100.00
71774;BME280;59607;52.130;5.430;2023-09-07T01:11:51;102025.25;;;17.84;100.00
71774;BME280;59607;52.130;5.430;2023-09-07T01:14:19;102025.91;;;17.86;100.00
71774;BME280;59607;52.130;5.430;2023-09-07T01:17:01;102022.59;;;17.84;100.00
71774;BME280;59607;52.130;5.430;2023-09-07T01:19:43;102018.84;;;17.79;100.00
71774;BME280;59607;52.130;5.430;2023-09-07T01:22:18;102024.88;;;17.72;100.00
71774;BME280;59607;52.130;5.430;2023-09-07T01:24:46;102030.84;;;17.74;100.00
71774;BME280;59607;52.130;5.430;2023-09-07T01:27:19;102025.25;;;17.69;100.00
71774;BME280;59607;52.130;5.430;2023-09-07T01:29:51;102022.31;;;17.64;100.00
71774;BME280;59607;52.130;5.430;2023-09-07T01:32:21;102024.50;;;17.60;100.00
71774;BME280;59607;52.130;5.430;2023-09-07T01:34:48;102022.03;;;17.59;100.00
71774;BME280;59607;52.130;5.430;2023-09-07T01:37:17;102028.69;;;17.55;100.00
71774;BME280;59607;52.130;5.430;2023-09-07T01:39:44;102021.47;;;17.48;100.00
71774;BME280;59607;52.130;5.430;2023-09-07T01:42:11;102022.81;;;17.44;100.00
71774;BME280;59607;52.130;5.430;2023-09-07T01:44:37;102018.72;;;17.42;100.00
71774;BME280;59607;52.130;5.430;2023-09-07T01:47:10;102025.53;;;17.36;100.00
71774;BME280;59607;52.130;5.430;2023-09-07T01:49:37;102026.06;;;17.31;100.00
71774;BME280;59607;52.130;5.430;2023-09-07T01:52:07;102020.13;;;17.29;100.00
71774;BME280;59607;52.130;5.430;2023-09-07T01:54:35;102011.06;;;17.23;100.00
71774;BME280;59607;52.130;5.430;2023-09-07T01:57:03;102012.53;;;17.26;100.00
71774;BME280;59607;52.130;5.430;2023-09-07T01:59:44;102009.69;;;17.27;100.00
71774;BME280;59607;52.130;5.430;2023-09-07T02:02:24;102009.81;;;17.34;100.00
71774;BME280;59607;52.130;5.430;2023-09-07T02:04:53;102015.66;;;17.30;100.00
71774;BME280;59607;52.130;5.430;2023-09-07T02:07:24;102014.81;;;17.29;100.00
71774;BME280;59607;52.130;5.430;2023-09-07T02:09:54;102017.28;;;17.31;100.00
71774;BME280;59607;52.130;5.430;2023-09-07T02:12:21;102016.66;;;17.29;100.00
71774;BME280;59607;52.130;5.430;2023-09-07T02:14:47;102018.72;;;17.18;100.00
71774;BME280;59607;52.130;5.430;2023-09-07T02:17:14;102009.00;;;17.10;100.00
71774;BME280;59607;52.130;5.430;2023-09-07T02:19:51;102012.81;;;17.08;100.00
71774;BME280;59607;52.130;5.430;2023-09-07T02:22:27;102010.34;;;17.06;100.00
71774;BME280;59607;52.130;5.430;2023-09-07T02:24:53;102009.34;;;17.07;100.00
71774;BME280;59607;52.130;5.430;2023-09-07T02:27:20;102005.53;;;17.10;100.00
71774;BME280;59607;52.130;5.430;2023-09-07T02:30:02;102013.59;;;17.17;100.00
71774;BME280;59607;52.130;5.430;2023-09-07T02:32:36;102007.75;;;17.21;100.00
71774;BME280;59607;52.130;5.430;2023-09-07T02:37:43;102008.28;;;17.17;100.00
71774;BME280;59607;52.130;5.430;2023-09-07T02:40:23;102008.47;;;17.15;100.00
71774;BME280;59607;52.130;5.430;2023-09-07T02:43:02;102009.13;;;17.17;100.00
71774;BME280;59607;52.130;5.430;2023-09-07T02:45:34;102011.59;;;17.19;100.00
71774;BME280;59607;52.130;5.430;2023-09-07T02:48:00;102014.06;;;17.20;100.00
71774;BME280;59607;52.130;5.430;2023-09-07T02:50:32;102015.09;;;17.19;100.00
71774;BME280;59607;52.130;5.430;2023-09-07T02:53:03;102014.44;;;17.17;100.00
71774;BME280;59607;52.130;5.430;2023-09-07T02:55:30;102016.59;;;17.13;100.00
71774;BME280;59607;52.130;5.430;2023-09-07T02:58:02;102011.66;;;17.10;100.00
71774;BME280;59607;52.130;5.430;2023-09-07T03:00:33;102017.28;;;17.07;100.00
71774;BME280;59607;52.130;5.430;2023-09-07T03:03:04;102017.81;;;17.02;100.00
71774;BME280;59607;52.130;5.430;2023-09-07T03:05:44;102012.88;;;16.99;100.00
71774;BME280;59607;52.130;5.430;2023-09-07T03:08:15;102019.16;;;16.98;100.00
71774;BME280;59607;52.130;5.430;2023-09-07T03:10:45;102018.06;;;16.93;100.00
71774;BME280;59607;52.130;5.430;2023-09-07T03:13:18;102008.81;;;16.88;100.00
71774;BME280;59607;52.130;5.430;2023-09-07T03:15:55;102018.94;;;16.85;100.00
71774;BME280;59607;52.130;5.430;2023-09-07T03:21:03;102026.41;;;16.81;100.00
71774;BME280;59607;52.130;5.430;2023-09-07T03:23:33;102022.00;;;16.73;100.00
71774;BME280;59607;52.130;5.430;2023-09-07T03:26:00;102017.91;;;16.62;100.00
71774;BME280;59607;52.130;5.430;2023-09-07T03:28:28;102015.44;;;16.61;100.00
71774;BME280;59607;52.130;5.430;2023-09-07T03:30:56;102020.38;;;16.64;100.00
71774;BME280;59607;52.130;5.430;2023-09-07T03:33:32;102015.72;;;16.66;100.00
71774;BME280;59607;52.130;5.430;2023-09-07T03:36:24;102012.63;;;16.62;100.00
71774;BME280;59607;52.130;5.430;2023-09-07T03:38:55;102015.09;;;16.64;100.00
71774;BME280;59607;52.130;5.430;2023-09-07T03:41:21;102012.78;;;16.61;100.00
71774;BME280;59607;52.130;5.430;2023-09-07T03:43:49;102006.88;;;16.50;100.00
71774;BME280;59607;52.130;5.430;2023-09-07T03:46:23;102013.03;;;16.43;100.00
71774;BME280;59607;52.130;5.430;2023-09-07T03:49:06;102014.34;;;16.47;100.00
71774;BME280;59607;52.130;5.430;2023-09-07T03:51:38;102015.16;;;16.47;100.00
71774;BME280;59607;52.130;5.430;2023-09-07T03:54:05;102011.69;;;16.47;100.00
71774;BME280;59607;52.130;5.430;2023-09-07T03:56:35;102016.97;;;16.47;100.00
71774;BME280;59607;52.130;5.430;2023-09-07T03:59:09;102018.81;;;16.46;100.00
71774;BME280;59607;52.130;5.430;2023-09-07T04:01:42;102012.53;;;16.47;100.00
71774;BME280;59607;52.130;5.430;2023-09-07T04:04:09;102015.53;;;16.44;100.00
71774;BME280;59607;52.130;5.430;2023-09-07T04:06:46;102019.31;;;16.41;100.00
71774;BME280;59607;52.130;5.430;2023-09-07T04:09:16;102015.41;;;16.29;100.00
71774;BME280;59607;52.130;5.430;2023-09-07T04:11:48;102023.38;;;16.21;100.00
71774;BME280;59607;52.130;5.430;2023-09-07T04:14:14;102025.06;;;16.13;100.00
71774;BME280;59607;52.130;5.430;2023-09-07T04:16:43;102022.09;;;16.08;100.00
71774;BME280;59607;52.130;5.430;2023-09-07T04:19:13;102020.63;;;16.06;100.00
71774;BME280;59607;52.130;5.430;2023-09-07T04:21:47;102027.56;;;16.07;100.00
71774;BME280;59607;52.130;5.430;2023-09-07T04:24:14;102021.63;;;16.04;100.00
71774;BME280;59607;52.130;5.430;2023-09-07T04:26:40;102023.91;;;16.08;100.00
71774;BME280;59607;52.130;5.430;2023-09-07T04:29:07;102024.59;;;16.01;100.00
71774;BME280;59607;52.130;5.430;2023-09-07T04:31:39;102018.50;;;16.01;100.00
71774;BME280;59607;52.130;5.430;2023-09-07T04:34:07;102027.59;;;15.98;100.00
71774;BME280;59607;52.130;5.430;2023-09-07T04:36:40;102018.31;;;15.94;100.00
71774;BME280;59607;52.130;5.430;2023-09-07T04:39:06;102017.00;;;15.90;100.00
71774;BME280;59607;52.130;5.430;2023-09-07T04:41:33;102021.66;;;15.88;100.00
71774;BME280;59607;52.130;5.430;2023-09-07T04:44:03;102027.75;;;15.88;100.00
71774;BME280;59607;52.130;5.430;2023-09-07T04:46:30;102024.28;;;15.88;100.00
71774;BME280;59607;52.130;5.430;2023-09-07T04:48:57;102030.38;;;15.88;100.00
71774;BME280;59607;52.130;5.430;2023-09-07T04:51:23;102027.91;;;15.87;100.00
71774;BME280;59607;52.130;5.430;2023-09-07T04:53:55;102021.47;;;15.89;100.00
71774;BME280;59607;52.130;5.430;2023-09-07T04:56:32;102028.09;;;15.85;100.00
71774;BME280;59607;52.130;5.430;2023-09-07T04:58:58;102029.25;;;15.83;100.00
71774;BME280;59607;52.130;5.430;2023-09-07T05:01:27;102028.09;;;15.85;100.00
71774;BME280;59607;52.130;5.430;2023-09-07T05:03:54;102032.53;;;15.93;100.00
71774;BME280;59607;52.130;5.430;2023-09-07T05:06:21;102028.41;;;15.99;100.00
71774;BME280;59607;52.130;5.430;2023-09-07T05:08:52;102037.00;;;15.93;100.00
71774;BME280;59607;52.130;5.430;2023-09-07T05:11:18;102030.38;;;15.88;100.00
71774;BME280;59607;52.130;5.430;2023-09-07T05:13:45;102037.53;;;15.88;100.00
71774;BME280;59607;52.130;5.430;2023-09-07T05:16:17;102045.13;;;15.91;100.00
71774;BME280;59607;52.130;5.430;2023-09-07T05:18:47;102036.66;;;15.96;100.00
71774;BME280;59607;52.130;5.430;2023-09-07T05:21:19;102037.66;;;16.83;100.00
71774;BME280;59607;52.130;5.430;2023-09-07T05:23:56;102045.16;;;18.19;100.00
71774;BME280;59607;52.130;5.430;2023-09-07T05:26:34;102041.72;;;19.36;100.00
71774;BME280;59607;52.130;5.430;2023-09-07T05:29:03;102042.69;;;20.21;94.66
71774;BME280;59607;52.130;5.430;2023-09-07T05:31:32;102036.31;;;20.84;89.53
71774;BME280;59607;52.130;5.430;2023-09-07T05:34:02;102051.75;;;21.37;86.23
71774;BME280;59607;52.130;5.430;2023-09-07T05:36:33;102047.22;;;21.85;83.15
71774;BME280;59607;52.130;5.430;2023-09-07T05:38:59;102048.84;;;22.45;77.81
71774;BME280;59607;52.130;5.430;2023-09-07T05:41:29;102045.31;;;22.90;75.27
71774;BME280;59607;52.130;5.430;2023-09-07T05:44:00;102052.75;;;23.46;72.53
71774;BME280;59607;52.130;5.430;2023-09-07T05:46:32;102045.84;;;23.95;70.41
71774;BME280;59607;52.130;5.430;2023-09-07T05:49:03;102041.31;;;24.33;67.68
71774;BME280;59607;52.130;5.430;2023-09-07T05:51:33;102044.88;;;24.88;64.96
71774;BME280;59607;52.130;5.430;2023-09-07T05:54:00;102041.09;;;25.32;62.54
71774;BME280;59607;52.130;5.430;2023-09-07T05:56:27;102041.78;;;25.63;60.74
71774;BME280;59607;52.130;5.430;2023-09-07T05:58:53;102044.81;;;26.20;58.86
71774;BME280;59607;52.130;5.430;2023-09-07T06:01:34;102050.63;;;26.29;57.31
71774;BME280;59607;52.130;5.430;2023-09-07T06:04:10;102055.06;;;26.81;56.40
71774;BME280;59607;52.130;5.430;2023-09-07T06:06:37;102060.97;;;26.95;55.77
71774;BME280;59607;52.130;5.430;2023-09-07T06:09:17;102062.28;;;27.10;54.12
71774;BME280;59607;52.130;5.430;2023-09-07T06:11:50;102064.44;;;26.79;55.00
71774;BME280;59607;52.130;5.430;2023-09-07T06:14:16;102070.59;;;24.77;60.99
71774;BME280;59607;52.130;5.430;2023-09-07T06:16:46;102073.78;;;23.10;69.43
71774;BME280;59607;52.130;5.430;2023-09-07T06:19:13;102077.38;;;22.12;75.97
71774;BME280;59607;52.130;5.430;2023-09-07T06:21:40;102072.91;;;21.45;81.27
71774;BME280;59607;52.130;5.430;2023-09-07T06:24:07;102087.47;;;21.15;84.41
71774;BME280;59607;52.130;5.430;2023-09-07T06:26:39;102084.53;;;20.90;86.43
71774;BME280;59607;52.130;5.430;2023-09-07T06:29:23;102088.31;;;20.60;88.67
71774;BME280;59607;52.130;5.430;2023-09-07T06:31:53;102086.22;;;20.42;90.80
71774;BME280;59607;52.130;5.430;2023-09-07T06:34:27;102080.91;;;20.42;91.76
71774;BME280;59607;52.130;5.430;2023-09-07T06:37:04;102087.03;;;20.42;91.38
71774;BME280;59607;52.130;5.430;2023-09-07T06:39:32;102093.56;;;20.33;93.70
71774;BME280;59607;52.130;5.430;2023-09-07T06:42:05;102090.88;;;20.33;93.18
71774;BME280;59607;52.130;5.430;2023-09-07T06:44:33;102097.09;;;20.40;92.86
71774;BME280;59607;52.130;5.430;2023-09-07T06:47:03;102101.22;;;20.50;94.41
71774;BME280;59607;52.130;5.430;2023-09-07T06:49:34;102098.78;;;20.55;94.63
71774;BME280;59607;52.130;5.430;2023-09-07T06:52:00;102103.06;;;20.49;92.77
71774;BME280;59607;52.130;5.430;2023-09-07T06:54:41;102090.56;;;20.50;94.11
71774;BME280;59607;52.130;5.430;2023-09-07T06:57:14;102094.66;;;20.52;92.78
71774;BME280;59607;52.130;5.430;2023-09-07T06:59:40;102089.94;;;20.47;94.17
71774;BME280;59607;52.130;5.430;2023-09-07T07:02:07;102093.44;;;20.55;93.56
71774;BME280;59607;52.130;5.430;2023-09-07T07:04:39;102095.53;;;20.73;94.70
71774;BME280;59607;52.130;5.430;2023-09-07T07:07:06;102105.44;;;20.79;92.67
71774;BME280;59607;52.130;5.430;2023-09-07T07:09:40;102100.38;;;20.98;92.62
71774;BME280;59607;52.130;5.430;2023-09-07T07:12:06;102101.03;;;21.07;91.70
71774;BME280;59607;52.130;5.430;2023-09-07T07:14:33;102098.97;;;21.16;90.95
71774;BME280;59607;52.130;5.430;2023-09-07T07:17:04;102097.13;;;21.16;89.32
71774;BME280;59607;52.130;5.430;2023-09-07T07:19:31;102102.25;;;21.31;89.21
71774;BME280;59607;52.130;5.430;2023-09-07T07:22:01;102100.22;;;21.40;89.90
71774;BME280;59607;52.130;5.430;2023-09-07T07:24:31;102101.84;;;21.48;87.59
71774;BME280;59607;52.130;5.430;2023-09-07T07:27:04;102103.28;;;21.57;88.53
71774;BME280;59607;52.130;5.430;2023-09-07T07:29:38;102099.81;;;21.64;86.63
71774;BME280;59607;52.130;5.430;2023-09-07T07:32:06;102100.81;;;21.63;86.42
71774;BME280;59607;52.130;5.430;2023-09-07T07:34:32;102100.22;;;21.67;85.32
71774;BME280;59607;52.130;5.430;2023-09-07T07:36:59;102090.81;;;21.78;86.00
71774;BME280;59607;52.130;5.430;2023-09-07T07:39:28;102085.00;;;21.88;84.11
71774;BME280;59607;52.130;5.430;2023-09-07T07:41:58;102096.72;;;22.01;84.82
71774;BME280;59607;52.130;5.430;2023-09-07T07:44:24;102097.31;;;22.03;84.38
71774;BME280;59607;52.130;5.430;2023-09-07T07:47:07;102092.75;;;22.17;84.62
71774;BME280;59607;52.130;5.430;2023-09-07T07:49:36;102088.81;;;22.26;83.52
71774;BME280;59607;52.130;5.430;2023-09-07T07:52:05;102088.78;;;22.40;83.67
71774;BME280;59607;52.130;5.430;2023-09-07T07:54:36;102079.47;;;22.49;83.17
71774;BME280;59607;52.130;5.430;2023-09-07T07:57:06;102082.28;;;22.68;82.31
71774;BME280;59607;52.130;5.430;2023-09-07T07:59:33;102085.78;;;22.68;83.12
71774;BME280;59607;52.130;5.430;2023-09-07T08:02:14;102079.03;;;22.66;81.42
71774;BME280;59607;52.130;5.430;2023-09-07T08:04:43;102077.75;;;22.68;81.40
71774;BME280;59607;52.130;5.430;2023-09-07T08:07:10;102082.84;;;22.84;81.47
71774;BME280;59607;52.130;5.430;2023-09-07T08:09:40;102083.13;;;23.01;80.72
71774;BME280;59607;52.130;5.430;2023-09-07T08:12:17;102078.88;;;23.18;79.40
71774;BME280;59607;52.130;5.430;2023-09-07T08:14:43;102071.25;;;23.22;79.12
71774;BME280;59607;52.130;5.430;2023-09-07T08:17:15;102072.53;;;23.45;78.98
71774;BME280;59607;52.130;5.430;2023-09-07T08:19:42;102066.53;;;23.69;77.84
71774;BME280;59607;52.130;5.430;2023-09-07T08:22:18;102062.59;;;23.71;77.55
71774;BME280;59607;52.130;5.430;2023-09-07T08:24:44;102055.47;;;23.84;75.16
71774;BME280;59607;52.130;5.430;2023-09-07T08:27:15;102059.84;;;23.78;74.73
71774;BME280;59607;52.130;5.430;2023-09-07T08:29:46;102058.06;;;23.90;71.93
71774;BME280;59607;52.130;5.430;2023-09-07T08:32:26;102060.47;;;23.99;73.44
71774;BME280;59607;52.130;5.430;2023-09-07T08:34:56;102049.63;;;24.06;72.29
71774;BME280;59607;52.130;5.430;2023-09-07T08:37:30;102052.78;;;24.21;70.56
71774;BME280;59607;52.130;5.430;2023-09-07T08:40:01;102051.72;;;24.41;70.44
71774;BME280;59607;52.130;5.430;2023-09-07T08:42:31;102054.34;;;24.60;68.65
71774;BME280;59607;52.130;5.430;2023-09-07T08:45:00;102047.88;;;24.80;68.32
71774;BME280;59607;52.130;5.430;2023-09-07T08:47:36;102046.41;;;24.96;65.70
71774;BME280;59607;52.130;5.430;2023-09-07T08:50:14;102040.59;;;24.99;66.37
71774;BME280;59607;52.130;5.430;2023-09-07T08:52:42;102047.00;;;25.10;66.74
71774;BME280;59607;52.130;5.430;2023-09-07T08:55:15;102040.84;;;25.21;66.03
71774;BME280;59607;52.130;5.430;2023-09-07T08:57:42;102044.47;;;25.27;66.64
71774;BME280;59607;52.130;5.430;2023-09-07T09:00:12;102038.28;;;25.38;65.80
71774;BME280;59607;52.130;5.430;2023-09-07T09:02:48;102038.97;;;25.46;64.56
71774;BME280;59607;52.130;5.430;2023-09-07T09:05:23;102031.94;;;25.57;62.83
71774;BME280;59607;52.130;5.430;2023-09-07T09:08:03;102029.84;;;25.59;63.50
71774;BME280;59607;52.130;5.430;2023-09-07T09:10:30;102022.28;;;25.68;63.00
71774;BME280;59607;52.130;5.430;2023-09-07T09:12:58;102025.63;;;25.87;62.59
71774;BME280;59607;52.130;5.430;2023-09-07T09:18:21;102030.00;;;26.05;61.05
71774;BME280;59607;52.130;5.430;2023-09-07T09:20:51;102027.63;;;26.21;60.10
71774;BME280;59607;52.130;5.430;2023-09-07T09:23:18;102022.63;;;26.12;60.29
71774;BME280;59607;52.130;5.430;2023-09-07T09:25:47;102022.50;;;26.19;59.47
71774;BME280;59607;52.130;5.430;2023-09-07T09:28:14;102017.19;;;26.36;59.79
71774;BME280;59607;52.130;5.430;2023-09-07T09:30:41;102022.06;;;26.40;57.92
71774;BME280;59607;52.130;5.430;2023-09-07T09:33:12;102021.44;;;26.49;57.67
71774;BME280;59607;52.130;5.430;2023-09-07T09:35:39;102022.66;;;26.59;55.11
71774;BME280;59607;52.130;5.430;2023-09-07T09:38:06;102026.03;;;26.66;54.62
71774;BME280;59607;52.130;5.430;2023-09-07T09:40:41;102021.28;;;26.73;55.27
71774;BME280;59607;52.130;5.430;2023-09-07T09:43:08;102026.63;;;26.85;54.39
71774;BME280;59607;52.130;5.430;2023-09-07T09:45:35;102018.94;;;26.94;53.61
71774;BME280;59607;52.130;5.430;2023-09-07T09:48:08;102025.72;;;26.97;53.43
71774;BME280;59607;52.130;5.430;2023-09-07T09:50:35;102023.59;;;26.99;53.32
71774;BME280;59607;52.130;5.430;2023-09-07T09:53:10;102018.22;;;27.16;53.46
71774;BME280;59607;52.130;5.430;2023-09-07T09:55:47;102018.94;;;27.29;52.36
71774;BME280;59607;52.130;5.430;2023-09-07T09:58:17;102013.91;;;27.15;52.71
71774;BME280;59607;52.130;5.430;2023-09-07T10:00:45;102021.13;;;27.32;53.15
71774;BME280;59607;52.130;5.430;2023-09-07T10:03:22;102021.47;;;27.58;52.92
71774;BME280;59607;52.130;5.430;2023-09-07T10:09:18;102016.00;;;27.70;50.43
71774;BME280;59607;52.130;5.430;2023-09-07T10:11:53;102003.78;;;27.84;50.43
71774;BME280;59607;52.130;5.430;2023-09-07T10:14:20;102010.66;;;27.98;50.24
71774;BME280;59607;52.130;5.430;2023-09-07T10:16:49;102006.31;;;27.96;51.25
71774;BME280;59607;52.130;5.430;2023-09-07T10:19:25;101999.69;;;28.09;49.78
71774;BME280;59607;52.130;5.430;2023-09-07T10:21:54;102007.13;;;27.97;49.56
71774;BME280;59607;52.130;5.430;2023-09-07T10:24:42;102006.44;;;28.07;49.57
71774;BME280;59607;52.130;5.430;2023-09-07T10:27:13;101998.72;;;28.16;48.43
71774;BME280;59607;52.130;5.430;2023-09-07T10:29:52;102000.44;;;28.27;48.74
71774;BME280;59607;52.130;5.430;2023-09-07T10:32:52;102000.72;;;28.31;49.07
71774;BME280;59607;52.130;5.430;2023-09-07T10:35:19;102008.91;;;28.36;48.49
71774;BME280;59607;52.130;5.430;2023-09-07T10:38:05;102000.38;;;28.22;48.49
71774;BME280;59607;52.130;5.430;2023-09-07T10:40:36;101990.44;;;28.28;48.64
71774;BME280;59607;52.130;5.430;2023-09-07T10:43:03;101989.88;;;28.53;47.95
71774;BME280;59607;52.130;5.430;2023-09-07T10:45:33;101987.19;;;28.53;48.20
71774;BME280;59607;52.130;5.430;2023-09-07T10:48:01;101993.03;;;28.73;47.99
71774;BME280;59607;52.130;5.430;2023-09-07T10:50:43;101996.56;;;28.78;48.34
71774;BME280;59607;52.130;5.430;2023-09-07T10:53:13;101996.66;;;28.94;48.00
71774;BME280;59607;52.130;5.430;2023-09-07T10:55:41;101985.03;;;28.88;47.25
71774;BME280;59607;52.130;5.430;2023-09-07T10:58:11;101991.25;;;28.89;46.68
71774;BME280;59607;52.130;5.430;2023-09-07T11:00:53;101985.59;;;28.90;47.05
71774;BME280;59607;52.130;5.430;2023-09-07T11:03:20;101983.28;;;29.10;46.27
71774;BME280;59607;52.130;5.430;2023-09-07T11:05:51;101983.56;;;29.08;47.05
71774;BME280;59607;52.130;5.430;2023-09-07T11:08:20;101977.94;;;29.20;46.58
71774;BME280;59607;52.130;5.430;2023-09-07T11:10:58;101981.47;;;29.21;45.14
71774;BME280;59607;52.130;5.430;2023-09-07T11:13:25;101970.63;;;29.15;45.65
71774;BME280;59607;52.130;5.430;2023-09-07T11:15:59;101981.19;;;29.22;45.79
71774;BME280;59607;52.130;5.430;2023-09-07T11:18:26;101973.94;;;29.33;45.24
71774;BME280;59607;52.130;5.430;2023-09-07T11:20:58;101963.97;;;29.34;45.32
71774;BME280;59607;52.130;5.430;2023-09-07T11:23:26;101969.75;;;29.58;44.24
71774;BME280;59607;52.130;5.430;2023-09-07T11:25:52;101965.50;;;29.78;44.91
71774;BME280;59607;52.130;5.430;2023-09-07T11:28:32;101960.63;;;29.75;44.58
71774;BME280;59607;52.130;5.430;2023-09-07T11:31:12;101949.00;;;29.79;44.40
71774;BME280;59607;52.130;5.430;2023-09-07T11:33:55;101956.28;;;29.79;43.93
71774;BME280;59607;52.130;5.430;2023-09-07T11:36:40;101954.09;;;29.71;42.74
71774;BME280;59607;52.130;5.430;2023-09-07T11:39:11;101952.50;;;29.80;43.13
71774;BME280;59607;52.130;5.430;2023-09-07T11:41:46;101952.53;;;29.85;43.59
71774;BME280;59607;52.130;5.430;2023-09-07T11:44:14;101947.41;;;29.99;43.91
71774;BME280;59607;52.130;5.430;2023-09-07T11:46:41;101949.84;;;30.01;43.92
71774;BME280;59607;52.130;5.430;2023-09-07T11:49:13;101953.09;;;30.08;43.47
71774;BME280;59607;52.130;5.430;2023-09-07T12:37:10;101918.44;;;30.78;42.44
71774;BME280;59607;52.130;5.430;2023-09-07T12:39:37;101908.69;;;30.72;41.33
71774;BME280;59607;52.130;5.430;2023-09-07T12:42:10;101906.00;;;30.77;41.15
71774;BME280;59607;52.130;5.430;2023-09-07T12:44:38;101904.84;;;30.94;40.88
71774;BME280;59607;52.130;5.430;2023-09-07T12:47:11;101911.09;;;30.99;41.03
71774;BME280;59607;52.130;5.430;2023-09-07T12:49:37;101904.34;;;30.86;40.36
71774;BME280;59607;52.130;5.430;2023-09-07T12:52:04;101895.97;;;30.72;40.67
71774;BME280;59607;52.130;5.430;2023-09-07T12:54:40;101909.78;;;30.86;41.24
71774;BME280;59607;52.130;5.430;2023-09-07T12:57:07;101905.94;;;31.03;40.80
71774;BME280;59607;52.130;5.430;2023-09-07T12:59:38;101902.38;;;31.08;40.24
71774;BME280;59607;52.130;5.430;2023-09-07T13:02:04;101894.56;;;31.01;39.51
71774;BME280;59607;52.130;5.430;2023-09-07T13:04:31;101890.75;;;30.97;39.01
71774;BME280;59607;52.130;5.430;2023-09-07T13:07:00;101881.03;;;30.96;39.73
71774;BME280;59607;52.130;5.430;2023-09-07T13:09:28;101883.16;;;31.04;39.63
71774;BME280;59607;52.130;5.430;2023-09-07T13:11:54;101893.78;;;30.90;40.61
71774;BME280;59607;52.130;5.430;2023-09-07T13:14:21;101883.16;;;31.04;39.99
71774;BME280;59607;52.130;5.430;2023-09-07T13:16:59;101872.63;;;30.97;39.66
71774;BME280;59607;52.130;5.430;2023-09-07T13:19:26;101873.47;;;30.82;40.04
71774;BME280;59607;52.130;5.430;2023-09-07T13:21:55;101879.13;;;30.96;39.76
71774;BME280;59607;52.130;5.430;2023-09-07T13:24:22;101882.13;;;30.95;39.02
71774;BME280;59607;52.130;5.430;2023-09-07T13:26:57;101873.44;;;30.93;40.02
71774;BME280;59607;52.130;5.430;2023-09-07T13:29:24;101871.00;;;30.96;39.55
71774;BME280;59607;52.130;5.430;2023-09-07T13:31:55;101870.38;;;31.10;40.42
71774;BME280;59607;52.130;5.430;2023-09-07T13:34:21;101870.09;;;31.11;39.96
71774;BME280;59607;52.130;5.430;2023-09-07T13:36:48;101864.47;;;31.08;39.92
71774;BME280;59607;52.130;5.430;2023-09-07T13:39:16;101862.19;;;31.25;39.72
71774;BME280;59607;52.130;5.430;2023-09-07T13:41:48;101857.91;;;31.19;40.35
71774;BME280;59607;52.130;5.430;2023-09-07T13:44:14;101852.47;;;31.19;39.98
71774;BME280;59607;52.130;5.430;2023-09-07T13:46:47;101854.84;;;31.26;39.73
71774;BME280;59607;52.130;5.430;2023-09-07T13:49:14;101856.25;;;31.23;40.00
71774;BME280;59607;52.130;5.430;2023-09-07T13:51:41;101853.25;;;31.25;40.07
71774;BME280;59607;52.130;5.430;2023-09-07T13:54:11;101849.78;;;31.19;39.80
71774;BME280;59607;52.130;5.430;2023-09-07T13:56:38;101846.72;;;31.26;40.24
71774;BME280;59607;52.130;5.430;2023-09-07T13:59:14;101852.59;;;31.44;40.53
71774;BME280;59607;52.130;5.430;2023-09-07T14:01:41;101839.66;;;31.35;40.26
71774;BME280;59607;52.130;5.430;2023-09-07T14:04:07;101837.53;;;31.27;40.75